KPVW

Details ICAO KPVW
Name HALE CO
Region United States
Timezone America/Chicago (UTC-6.0)
Plans Departing 6
Arriving 4
Stats Elevation 3,374 ft / 1,028 m (AMSL)
Location 34.168281° -101.717105°
Runways 2
Magnetic Variation 6.117° E
Sunrise 2017-12-12 13:44:57 UTC / 2017-12-12 07:44:57 Local
Sunset 2017-12-12 23:39:22 UTC / 2017-12-12 17:39:22 Local
Advertisement - Login to hide

Runways

ID Width Length Bearing (true) Bearing (mag) Surface Threshold Offset Overrun Length
04 100 ft / 30 m 5,996 ft / 1,828 m 50.59° 44.47° Asphalt 0 ft / 0 m 0 ft / 0 m
13 100 ft / 30 m 4,002 ft / 1,220 m 138.16° 132.04° Asphalt 0 ft / 0 m 0 ft / 0 m
22 100 ft / 30 m 5,996 ft / 1,828 m 230.60° 224.48° Asphalt 0 ft / 0 m 0 ft / 0 m
31 100 ft / 30 m 4,002 ft / 1,220 m 318.17° 312.05° Asphalt 0 ft / 0 m 0 ft / 0 m

Map

Weather


0- 5 10 15 20 25 30 35+ Temperature / ° C

Clouds and Precipitation
Forecast for 2017-12-12 18:00 UTC. Updated an hour ago

Ground ~20,000 ft ~40,000 ft Winds

METAR

KPVW 121615Z AUTO 29006KT 10SM CLR 05/M08 A3047 RMK AO2 T00471084

TAF

TAF KPVW 121122Z 1212/1312 35006KT P6SM SKC FM121700 26011KT P6SM SCT250

Frequencies

Recorded 119.67 MHz AWOS 3
Clearance 121.70 MHz LUBBOCK CLNC DEL
Unicom 123.00 MHz CTAF/UNICOM
Approach 119.20 MHz LUBBOCK APP/DEP
Warning: Do not use this data for real-world aviation or navigation. No guarantee of current accuracy is given.